Terminal Aerodrome Forecast
Issued by NWS Grand Junction, CO

Home | Current Version | Previous Version | Text Only | Print | Product List | Glossary On
Versions: 1 2 3 4 5 6 7 8 9 10 11 12 13 14 15 16 17 18 19 20 21 22 23 24 25 26 27 28 29 30 31 32 33 34 35
000
FTUS45 KGJT 261733
TAFGJT
TAF
KGJT 261733Z 2618/2718 11005KT P6SM SCT150
     FM262100 25006KT P6SM FEW100 SCT150
     FM270200 13007KT P6SM FEW110 BKN140
     FM270600 12011KT P6SM BKN130
     FM271600 13006KT P6SM SCT120=

USA.gov is the U.S. government's official web portal to all federal, state and local government web resources and services.